LIPH Airport Information

Runway Information
Runway 07 Length 7941 ft width 144 ft
Elevation 56 ft Threshold 254 ft Heading 69
Runway 25 Length 7941 ft Width 144 ft
Elevation 51 ft Threshold 389 ft Heading 249
Airport Frequencies
Type APP Name APP Frequency 36.23 MHZ
Type APP Name APP Frequency 120.4 MHZ
Type GND Name GND Frequency 27.917 MHZ
Type INFO Name PADOVA INF Frequency 124.15 MHZ
Type TWR Name TWR Frequency 118.7 MHZ
Airport Navaids
Type NDB Name Treviso Frequency 302 KHZ
Airport Weather Information & NOTAM
ADDS - METARS form results

(0600 UTC 21 July 2018)
 
METAR text: LIPH 210550Z 03003KT 350V070 CAVOK 22/16 Q1011
Conditions at: LIPH (TREVISO(CIV/IT-A, IT) observed 0550 UTC 21 July 2018
Temperature: 22.0°C (72°F)
Dewpoint: 16.0°C (61°F) [RH = 69%]
Pressure (altimeter): 29.85 inches Hg (1011.0 mb)
Winds: from the NNE (30 degrees) at 3 MPH (3 knots; 1.6 m/s)
Visibility: 6 or more miles (10+ km)
Ceiling: ceiling and visibility are OK
Clouds: unknown
Weather: no significant weather observed at this time

METAR text: LIPH 210520Z VRB02KT CAVOK 21/16 Q1011
Conditions at: LIPH (TREVISO(CIV/IT-A, IT) observed 0520 UTC 21 July 2018
Temperature: 21.0°C (70°F)
Dewpoint: 16.0°C (61°F) [RH = 73%]
Pressure (altimeter): 29.85 inches Hg (1011.0 mb)
Winds: variable direction winds at 2 MPH (2 knots; 1.0 m/s)
Visibility: 6 or more miles (10+ km)
Ceiling: ceiling and visibility are OK
Clouds: unknown
Weather: no significant weather observed at this time